createdAt,value
2023-04-02T00:01:26.802Z,99907.70
2023-04-02T00:04:16.235Z,99908.79
2023-04-02T00:06:49.198Z,99908.92
2023-04-02T00:09:27.729Z,99911.70
2023-04-02T00:12:02.818Z,99911.73
2023-04-02T00:14:36.550Z,99914.15
2023-04-02T00:17:09.593Z,99915.69
2023-04-02T00:19:50.527Z,99918.39
2023-04-02T00:22:23.858Z,99923.91
2023-04-02T00:24:57.563Z,99927.66
2023-04-02T00:27:31.621Z,99933.86
2023-04-02T00:30:04.276Z,99932.61
2023-04-02T00:32:38.275Z,99938.15
2023-04-02T00:35:19.090Z,99938.88
2023-04-02T00:37:52.355Z,99941.15
2023-04-02T00:40:27.998Z,99942.48
2023-04-02T00:43:04.387Z,99941.33
2023-04-02T00:45:39.694Z,99947.69
2023-04-02T00:48:31.110Z,99947.14
2023-04-02T00:51:13.314Z,99949.40
2023-04-02T00:53:47.830Z,99950.82
2023-04-02T00:56:27.144Z,99952.38
2023-04-02T00:58:59.999Z,99956.98
2023-04-02T01:01:36.469Z,99954.10
2023-04-02T01:04:27.614Z,99958.55
2023-04-02T01:07:01.232Z,99959.00
2023-04-02T01:09:55.262Z,99963.63
2023-04-02T01:12:37.150Z,99962.59
2023-04-02T01:15:19.415Z,99965.58
2023-04-02T01:18:03.639Z,99968.84
2023-04-02T01:23:42.112Z,99974.52
2023-04-02T01:26:23.980Z,99974.83
2023-04-02T01:29:06.733Z,99981.16
2023-04-02T01:31:40.870Z,99983.49
2023-04-02T01:34:19.064Z,99985.49
2023-04-02T01:37:02.757Z,99986.52
2023-04-02T01:39:46.938Z,99989.90
2023-04-02T01:42:26.256Z,99984.61
2023-04-02T01:45:04.725Z,99992.30
2023-04-02T01:47:36.850Z,99998.14
2023-04-02T01:50:31.460Z,99998.53
2023-04-02T01:53:07.130Z,100002.70
2023-04-02T01:55:47.001Z,100005.66
2023-04-02T01:58:24.282Z,100009.89
2023-04-02T02:01:02.439Z,100010.15
2023-04-02T02:03:37.186Z,100013.19
2023-04-02T02:06:14.057Z,100015.17
2023-04-02T02:08:53.264Z,100018.40
2023-04-02T02:11:31.232Z,100019.31
2023-04-02T02:14:07.594Z,100023.71
2023-04-02T02:16:42.713Z,100026.23
2023-04-02T02:19:25.017Z,100026.77
2023-04-02T02:21:58.005Z,100032.70
2023-04-02T02:24:33.192Z,100034.11
2023-04-02T02:27:33.283Z,100037.74
2023-04-02T02:30:16.334Z,100041.77
2023-04-02T02:32:56.942Z,100042.63
2023-04-02T02:35:34.771Z,100045.30
2023-04-02T02:38:30.538Z,100047.86
2023-04-02T02:41:14.575Z,100048.21
2023-04-02T02:43:51.257Z,100052.79
2023-04-02T02:46:26.578Z,100060.44
2023-04-02T02:49:01.984Z,100063.02
2023-04-02T02:51:45.455Z,100069.93
2023-04-02T02:54:21.747Z,100073.23
2023-04-02T02:56:58.066Z,100078.08
2023-04-02T02:59:33.617Z,100074.86
2023-04-02T03:02:07.169Z,100078.59
2023-04-02T03:04:40.955Z,100086.73
2023-04-02T03:07:19.194Z,100085.08
2023-04-02T03:10:00.293Z,100092.36
2023-04-02T03:12:40.274Z,100093.73
2023-04-02T03:15:21.185Z,100098.60
2023-04-02T03:17:58.860Z,100100.70
2023-04-02T03:20:38.954Z,100105.02
2023-04-02T03:23:20.514Z,100111.55
2023-04-02T03:25:58.054Z,100111.33
2023-04-02T03:28:34.226Z,100118.54
2023-04-02T03:31:11.357Z,100120.31
2023-04-02T03:33:47.292Z,100120.84
2023-04-02T03:36:28.458Z,100126.71
2023-04-02T03:39:10.309Z,100132.60
2023-04-02T03:41:46.357Z,100133.88
2023-04-02T03:44:27.185Z,100135.42
2023-04-02T03:47:04.941Z,100145.77
2023-04-02T03:49:42.635Z,100151.00
2023-04-02T03:52:21.970Z,100142.48
2023-04-02T03:54:54.831Z,100159.28
2023-04-02T03:57:36.612Z,100162.12
2023-04-02T04:00:17.108Z,100164.86
2023-04-02T04:02:57.598Z,100166.80
2023-04-02T04:05:33.408Z,100170.36
2023-04-02T04:08:08.973Z,100173.58
2023-04-02T04:10:41.796Z,100177.16
2023-04-02T04:13:16.986Z,100181.48
2023-04-02T04:15:55.854Z,100188.99
2023-04-02T04:18:37.923Z,100193.02
2023-04-02T04:21:29.770Z,100195.73
2023-04-02T04:24:07.319Z,100208.42
2023-04-02T04:26:49.340Z,100210.19
2023-04-02T04:29:40.844Z,100215.14
2023-04-02T04:32:27.726Z,100222.29
2023-04-02T04:35:08.124Z,100231.98
2023-04-02T04:37:44.432Z,100234.72
2023-04-02T04:40:23.916Z,100244.08
2023-04-02T04:43:02.173Z,100244.77
2023-04-02T04:45:46.163Z,100246.88
2023-04-02T04:48:23.829Z,100250.66
2023-04-02T04:51:00.418Z,100255.70
2023-04-02T04:53:33.386Z,100248.38
2023-04-02T04:56:18.126Z,100252.66
2023-04-02T04:59:00.764Z,100261.54
2023-04-02T05:01:41.765Z,100265.27
2023-04-02T05:04:18.836Z,100269.57
2023-04-02T05:06:59.456Z,100275.10
2023-04-02T05:09:35.550Z,100282.15
2023-04-02T05:12:19.333Z,100278.73
2023-04-02T05:14:59.070Z,100286.24
2023-04-02T05:17:36.918Z,100288.23
2023-04-02T05:20:19.561Z,100291.94
2023-04-02T05:22:59.313Z,100299.83
2023-04-02T05:25:33.466Z,100299.66
2023-04-02T05:28:17.095Z,100299.66
2023-04-02T05:30:54.116Z,100304.70
2023-04-02T05:33:30.889Z,100310.77
2023-04-02T05:36:08.949Z,100310.02
2023-04-02T05:38:49.487Z,100315.08
2023-04-02T05:41:28.289Z,100320.27
2023-04-02T05:44:07.638Z,100318.90
2023-04-02T05:46:48.674Z,100327.52
2023-04-02T05:49:27.022Z,100332.33
2023-04-02T05:52:03.069Z,100332.44
2023-04-02T05:54:39.633Z,100333.70
2023-04-02T05:57:14.872Z,100340.66
2023-04-02T05:59:53.336Z,100342.54
2023-04-02T06:02:31.728Z,100346.34
2023-04-02T06:05:08.368Z,100348.53
2023-04-02T06:07:47.574Z,100349.80
2023-04-02T06:10:25.092Z,100360.58
2023-04-02T06:13:03.509Z,100361.80
2023-04-02T06:15:40.754Z,100368.10
2023-04-02T06:18:24.501Z,100367.92
2023-04-02T06:20:58.037Z,100372.76
2023-04-02T06:23:41.731Z,100374.75
2023-04-02T06:26:21.694Z,100376.89
2023-04-02T06:28:58.728Z,100385.64
2023-04-02T06:31:39.158Z,100389.56
2023-04-02T06:34:19.206Z,100392.78
2023-04-02T06:37:22.542Z,100393.83
2023-04-02T06:40:00.897Z,100394.91
2023-04-02T06:42:37.989Z,100398.69
2023-04-02T06:45:39.532Z,100398.86
2023-04-02T06:48:23.428Z,100408.52
2023-04-02T06:51:07.089Z,100414.44
2023-04-02T06:53:44.116Z,100412.99
2023-04-02T06:56:29.661Z,100421.79
2023-04-02T06:59:04.502Z,100427.86
2023-04-02T07:01:42.630Z,100437.17
2023-04-02T07:04:15.572Z,100440.40
2023-04-02T07:06:51.233Z,100441.65
2023-04-02T07:09:25.919Z,100450.73
2023-04-02T07:12:01.200Z,100451.80
2023-04-02T07:14:31.537Z,100448.07
2023-04-02T07:17:04.337Z,100454.88
2023-04-02T07:19:35.038Z,100459.17
2023-04-02T07:22:07.576Z,100460.26
2023-04-02T07:24:43.871Z,100469.01
2023-04-02T07:27:16.771Z,100468.82
2023-04-02T07:29:49.794Z,100472.78
2023-04-02T07:32:21.905Z,100475.98
2023-04-02T07:34:54.289Z,100476.70
2023-04-02T07:37:26.651Z,100465.95
2023-04-02T07:39:59.101Z,100482.02
2023-04-02T07:42:31.724Z,100483.30
2023-04-02T07:45:05.786Z,100486.88
2023-04-02T07:47:39.246Z,100492.09
2023-04-02T07:50:12.613Z,100498.16
2023-04-02T07:52:45.321Z,100499.41
2023-04-02T07:55:18.387Z,100506.75
2023-04-02T07:57:55.064Z,100511.41
2023-04-02T08:00:29.046Z,100518.96
2023-04-02T08:03:01.449Z,100527.36
2023-04-02T08:05:34.533Z,100528.98
2023-04-02T08:08:07.493Z,100531.13
2023-04-02T08:10:39.837Z,100535.77
2023-04-02T08:13:12.265Z,100544.40
2023-04-02T08:15:45.607Z,100543.33
2023-04-02T08:18:18.056Z,100545.12
2023-04-02T08:20:53.507Z,100544.58
2023-04-02T08:23:32.437Z,100550.11
2023-04-02T08:26:05.666Z,100552.08
2023-04-02T08:28:38.638Z,100552.60
2023-04-02T08:31:11.052Z,100559.07
2023-04-02T08:33:43.155Z,100562.98
2023-04-02T08:36:18.916Z,100566.55
2023-04-02T08:38:51.267Z,100571.95
2023-04-02T08:41:28.110Z,100572.66
2023-04-02T08:44:18.655Z,100572.66
2023-04-02T08:46:53.870Z,100573.73
2023-04-02T08:49:33.213Z,100579.09
2023-04-02T08:52:05.634Z,100575.11
2023-04-02T08:54:38.596Z,100578.50
2023-04-02T08:57:23.726Z,100578.71
2023-04-02T09:00:01.206Z,100576.89
2023-04-02T09:02:40.566Z,100579.39
2023-04-02T09:05:24.426Z,100581.85
2023-04-02T09:08:00.316Z,100581.58
2023-04-02T09:10:40.165Z,100585.46
2023-04-02T09:13:21.203Z,100596.59
2023-04-02T09:15:58.524Z,100597.33
2023-04-02T09:18:32.702Z,100600.19
2023-04-02T09:21:19.914Z,100605.74
2023-04-02T09:23:52.627Z,100608.26
2023-04-02T09:26:27.436Z,100612.90
2023-04-02T09:29:15.780Z,100614.00
2023-04-02T09:31:51.627Z,100620.50
2023-04-02T09:34:31.983Z,100630.52
2023-04-02T09:37:10.767Z,100628.00
2023-04-02T09:39:42.958Z,100634.30
2023-04-02T09:42:34.223Z,100639.83
2023-04-02T09:45:20.680Z,100640.72
2023-04-02T09:47:55.196Z,100647.48
2023-04-02T09:50:31.731Z,100639.38
2023-04-02T09:53:29.706Z,100653.34
2023-04-02T09:56:14.278Z,100648.27
2023-04-02T09:59:02.295Z,100658.17
2023-04-02T10:01:37.317Z,100663.48
2023-04-02T10:04:47.987Z,100661.30
2023-04-02T10:07:38.119Z,100664.14
2023-04-02T10:10:23.982Z,100664.27
2023-04-02T10:13:01.382Z,100674.13
2023-04-02T10:15:39.596Z,100670.31
2023-04-02T10:18:17.815Z,100672.24
2023-04-02T10:20:52.362Z,100678.80
2023-04-02T10:23:31.449Z,100684.69
2023-04-02T10:26:17.942Z,100686.98
2023-04-02T10:29:07.012Z,100686.83
2023-04-02T10:31:51.344Z,100694.17
2023-04-02T10:34:29.577Z,100698.88
2023-04-02T10:37:12.802Z,100699.96
2023-04-02T10:39:49.803Z,100703.05
2023-04-02T10:42:27.538Z,100705.59
2023-04-02T10:45:05.975Z,100707.11
2023-04-02T10:47:43.188Z,100712.04
2023-04-02T10:50:32.658Z,100714.89
2023-04-02T10:53:11.882Z,100719.71
2023-04-02T10:55:49.444Z,100722.70
2023-04-02T10:58:26.755Z,100729.55
2023-04-02T11:01:03.879Z,100735.27
2023-04-02T11:03:41.883Z,100738.88
2023-04-02T11:06:21.278Z,100741.02
2023-04-02T11:08:57.078Z,100737.29
2023-04-02T11:11:32.673Z,100748.98
2023-04-02T11:14:14.101Z,100741.02
2023-04-02T11:16:49.303Z,100751.20
2023-04-02T11:19:28.350Z,100758.24
2023-04-02T11:22:06.049Z,100756.10
2023-04-02T11:24:47.676Z,100763.47
2023-04-02T11:27:34.093Z,100769.02
2023-04-02T11:30:21.461Z,100782.67
2023-04-02T11:32:55.244Z,100778.23
2023-04-02T11:35:40.938Z,100786.89
2023-04-02T11:38:54.975Z,100786.36
2023-04-02T11:42:07.385Z,100785.84
2023-04-02T11:44:39.828Z,100792.66
2023-04-02T11:47:20.641Z,100791.13
2023-04-02T11:50:26.547Z,100800.30
2023-04-02T11:53:03.283Z,100802.44
2023-04-02T11:55:37.243Z,100810.30
2023-04-02T11:58:42.943Z,100811.87
2023-04-02T12:01:46.294Z,100819.95
2023-04-02T12:04:42.120Z,100822.12
2023-04-02T12:07:35.105Z,100822.45
2023-04-02T12:10:16.970Z,100826.73
2023-04-02T12:12:49.819Z,100828.02
2023-04-02T12:15:35.721Z,100830.02
2023-04-02T12:18:16.620Z,100830.88
2023-04-02T12:20:55.065Z,100831.20
2023-04-02T12:23:31.205Z,100836.04
2023-04-02T12:26:06.671Z,100837.73
2023-04-02T12:28:39.054Z,100838.66
2023-04-02T12:31:18.812Z,100839.98
2023-04-02T12:33:54.415Z,100837.83
2023-04-02T12:36:27.095Z,100840.50
2023-04-02T12:38:59.736Z,100844.05
2023-04-02T12:41:34.016Z,100844.58
2023-04-02T12:44:11.494Z,100847.08
2023-04-02T12:46:44.458Z,100849.05
2023-04-02T12:49:28.974Z,100849.21
2023-04-02T12:52:03.249Z,100852.44
2023-04-02T12:54:44.723Z,100856.92
2023-04-02T12:57:41.155Z,100853.67
2023-04-02T13:00:37.460Z,100854.43
2023-04-02T13:03:21.396Z,100860.48
2023-04-02T13:05:57.323Z,100860.95
2023-04-02T13:08:33.043Z,100865.77
2023-04-02T13:11:07.039Z,100868.11
2023-04-02T13:13:41.196Z,100866.15
2023-04-02T13:16:29.578Z,100870.81
2023-04-02T13:19:26.505Z,100872.77
2023-04-02T13:22:01.145Z,100876.80
2023-04-02T13:24:34.292Z,100873.55
2023-04-02T13:27:06.855Z,100873.23
2023-04-02T13:29:39.257Z,100877.55
2023-04-02T13:32:15.563Z,100867.32
2023-04-02T13:34:48.116Z,100879.16
2023-04-02T13:37:20.572Z,100880.23
2023-04-02T13:39:52.618Z,100885.08
2023-04-02T13:42:25.185Z,100885.20
2023-04-02T13:44:57.317Z,100893.48
2023-04-02T13:47:29.536Z,100892.98
2023-04-02T13:50:01.497Z,100894.41
2023-04-02T13:52:33.541Z,100901.28
2023-04-02T13:55:10.308Z,100899.31
2023-04-02T13:57:43.534Z,100898.40
2023-04-02T14:00:18.245Z,100903.57
2023-04-02T14:02:54.173Z,100909.18
2023-04-02T14:05:39.074Z,100911.84
2023-04-02T14:08:18.279Z,100909.48
2023-04-02T14:11:04.159Z,100912.05
2023-04-02T14:14:02.984Z,100917.50
2023-04-02T14:16:50.860Z,100915.35
2023-04-02T14:19:41.778Z,100915.39
2023-04-02T14:22:27.624Z,100920.05
2023-04-02T14:25:08.818Z,100928.69
2023-04-02T14:27:47.271Z,100923.80
2023-04-02T14:30:24.791Z,100929.17
2023-04-02T14:33:05.396Z,100929.55
2023-04-02T14:35:45.096Z,100935.66
2023-04-02T14:38:25.982Z,100935.69
2023-04-02T14:41:05.997Z,100943.02
2023-04-02T14:43:46.647Z,100943.39
2023-04-02T14:46:18.736Z,100945.73
2023-04-02T14:48:55.881Z,100945.90
2023-04-02T14:51:35.495Z,100947.73
2023-04-02T14:54:14.087Z,100950.42
2023-04-02T14:56:51.746Z,100953.64
2023-04-02T14:59:30.833Z,100949.69
2023-04-02T15:02:09.740Z,100949.86
2023-04-02T15:04:46.917Z,100948.77
2023-04-02T15:07:23.684Z,100954.67
2023-04-02T15:10:06.856Z,100955.77
2023-04-02T15:12:41.869Z,100956.82
2023-04-02T15:15:39.052Z,100962.23
2023-04-02T15:18:18.456Z,100964.79
2023-04-02T15:21:02.458Z,100967.62
2023-04-02T15:23:47.236Z,100970.19
2023-04-02T15:26:25.806Z,100975.97
2023-04-02T15:29:15.877Z,100980.64
2023-04-02T15:32:02.801Z,100989.08
2023-04-02T15:34:40.986Z,100991.61
2023-04-02T15:37:20.937Z,100993.39
2023-04-02T15:40:09.472Z,100995.69
2023-04-02T15:42:48.327Z,101001.91
2023-04-02T15:45:28.284Z,101003.65
2023-04-02T15:48:24.616Z,101008.05
2023-04-02T15:51:11.237Z,101015.52
2023-04-02T15:53:55.786Z,101019.95
2023-04-02T15:56:42.430Z,101021.54
2023-04-02T15:59:46.118Z,101021.20
2023-04-02T16:02:47.891Z,101023.61
2023-04-02T16:05:32.041Z,101032.25
2023-04-02T16:08:24.301Z,101036.88
2023-04-02T16:10:57.050Z,101041.58
2023-04-02T16:13:34.056Z,101045.86
2023-04-02T16:16:10.669Z,101055.95
2023-04-02T16:18:51.277Z,101055.05
2023-04-02T16:21:29.826Z,101055.63
2023-04-02T16:24:02.127Z,101063.04
2023-04-02T16:26:44.836Z,101068.45
2023-04-02T16:29:37.974Z,101074.02
2023-04-02T16:32:28.826Z,101077.13
2023-04-02T16:37:57.615Z,101083.29
2023-04-02T16:40:39.187Z,101096.61
2023-04-02T16:43:27.579Z,101101.12
2023-04-02T16:46:07.527Z,101104.36
2023-04-02T16:48:50.402Z,101105.09
2023-04-02T16:51:28.917Z,101109.06
2023-04-02T16:54:11.350Z,101109.60
2023-04-02T16:56:56.281Z,101113.23
2023-04-02T16:59:36.516Z,101116.46
2023-04-02T17:02:32.263Z,101124.38
2023-04-02T17:05:16.072Z,101129.59
2023-04-02T17:07:53.476Z,101138.04
2023-04-02T17:10:30.979Z,101141.08
2023-04-02T17:13:16.852Z,101148.09
2023-04-02T17:15:58.373Z,101153.83
2023-04-02T17:18:30.972Z,101155.44
2023-04-02T17:21:08.487Z,101165.98
2023-04-02T17:26:29.461Z,101174.98
2023-04-02T17:29:09.486Z,101179.25
2023-04-02T17:31:44.035Z,101192.52
2023-04-02T17:34:18.313Z,101195.36
2023-04-02T17:37:01.793Z,101202.13
2023-04-02T17:39:41.817Z,101206.80
2023-04-02T17:42:21.659Z,101211.94
2023-04-02T17:45:06.424Z,101218.91
2023-04-02T17:47:47.435Z,101226.27
2023-04-02T17:51:03.132Z,101230.58
2023-04-02T17:53:44.991Z,101233.89
2023-04-02T17:56:32.223Z,101239.59
2023-04-02T17:59:24.527Z,101244.23
2023-04-02T18:02:12.172Z,101248.01
2023-04-02T18:04:51.327Z,101253.76
2023-04-02T18:07:34.966Z,101254.74
2023-04-02T18:10:16.948Z,101266.89
2023-04-02T18:13:02.804Z,101267.56
2023-04-02T18:16:01.495Z,101273.64
2023-04-02T18:19:03.266Z,101282.71
2023-04-02T18:21:44.318Z,101293.33
2023-04-02T18:24:29.530Z,101293.91
2023-04-02T18:27:14.695Z,101296.65
2023-04-02T18:29:57.224Z,101302.20
2023-04-02T18:32:50.095Z,101310.45
2023-04-02T18:35:28.289Z,101317.26
2023-04-02T18:38:24.696Z,101319.73
2023-04-02T18:41:06.879Z,101323.53
2023-04-02T18:43:51.657Z,101327.86
2023-04-02T18:46:35.402Z,101328.76
2023-04-02T18:49:21.004Z,101334.08
2023-04-02T18:52:00.553Z,101339.23
2023-04-02T18:54:36.592Z,101336.77
2023-04-02T18:57:16.118Z,101344.40
2023-04-02T18:59:54.837Z,101343.66
2023-04-02T19:02:45.200Z,101351.58
2023-04-02T19:05:25.167Z,101351.92
2023-04-02T19:08:11.083Z,101350.19
2023-04-02T19:10:46.283Z,101354.23
2023-04-02T19:13:20.352Z,101361.13
2023-04-02T19:16:26.884Z,101364.40
2023-04-02T19:19:12.737Z,101370.36
2023-04-02T19:22:04.970Z,101374.55
2023-04-02T19:24:55.074Z,101376.58
2023-04-02T19:27:33.422Z,101381.58
2023-04-02T19:30:24.792Z,101387.43
2023-04-02T19:33:06.000Z,101391.36
2023-04-02T19:35:44.844Z,101395.26
2023-04-02T19:38:32.452Z,101391.70
2023-04-02T19:41:14.394Z,101394.23
2023-04-02T19:43:46.440Z,101392.90
2023-04-02T19:46:18.864Z,101396.88
2023-04-02T19:48:57.865Z,101397.44
2023-04-02T19:51:30.148Z,101399.48
2023-04-02T19:54:02.440Z,101401.98
2023-04-02T19:56:34.492Z,101404.55
2023-04-02T19:59:17.057Z,101407.00
2023-04-02T20:01:50.887Z,101412.13
2023-04-02T20:04:23.622Z,101410.36
2023-04-02T20:06:54.478Z,101412.56
2023-04-02T20:09:26.446Z,101420.39
2023-04-02T20:11:58.652Z,101416.13
2023-04-02T20:14:31.887Z,101419.46
2023-04-02T20:17:04.404Z,101422.24
2023-04-02T20:19:36.888Z,101421.07
2023-04-02T20:22:08.956Z,101428.61
2023-04-02T20:24:43.279Z,101429.34
2023-04-02T20:27:15.421Z,101430.48
2023-04-02T20:29:48.446Z,101434.62
2023-04-02T20:32:20.388Z,101438.64
2023-04-02T20:34:53.119Z,101443.89
2023-04-02T20:37:26.056Z,101447.11
2023-04-02T20:39:58.156Z,101448.92
2023-04-02T20:42:31.224Z,101455.55
2023-04-02T20:45:05.078Z,101459.00
2023-04-02T20:47:37.430Z,101464.33
2023-04-02T20:50:11.425Z,101465.91
2023-04-02T20:52:43.689Z,101471.14
2023-04-02T20:55:15.600Z,101475.67
2023-04-02T20:57:47.660Z,101473.84
2023-04-02T21:00:20.963Z,101480.45
2023-04-02T21:02:53.090Z,101480.07
2023-04-02T21:05:25.171Z,101485.08
2023-04-02T21:07:58.007Z,101481.94
2023-04-02T21:10:30.048Z,101481.94
2023-04-02T21:13:02.062Z,101488.92
2023-04-02T21:15:34.949Z,101488.05
2023-04-02T21:18:07.540Z,101490.50
2023-04-02T21:20:39.700Z,101493.88
2023-04-02T21:23:10.517Z,101497.13
2023-04-02T21:25:42.345Z,101501.67
2023-04-02T21:28:14.245Z,101496.56
2023-04-02T21:30:46.208Z,101502.07
2023-04-02T21:33:18.049Z,101499.50
2023-04-02T21:35:50.654Z,101506.14
2023-04-02T21:38:20.914Z,101513.20
2023-04-02T21:40:52.838Z,101513.91
2023-04-02T21:43:24.794Z,101514.75
2023-04-02T21:46:01.517Z,101511.46
2023-04-02T21:48:33.894Z,101515.98
2023-04-02T21:51:11.170Z,101519.95
2023-04-02T21:53:44.398Z,101523.65
2023-04-02T21:56:18.096Z,101524.80
2023-04-02T21:58:51.570Z,101526.76
2023-04-02T22:01:27.604Z,101526.29
2023-04-02T22:04:02.115Z,101530.92
2023-04-02T22:06:38.194Z,101530.79
2023-04-02T22:09:12.000Z,101532.78
2023-04-02T22:11:45.826Z,101531.67
2023-04-02T22:14:18.274Z,101538.57
2023-04-02T22:16:50.367Z,101537.23
2023-04-02T22:19:22.989Z,101540.61
2023-04-02T22:21:53.925Z,101540.48
2023-04-02T22:24:25.941Z,101543.89
2023-04-02T22:26:57.885Z,101544.27
2023-04-02T22:29:29.912Z,101546.77
2023-04-02T22:32:01.791Z,101541.24
2023-04-02T22:34:34.279Z,101549.91
2023-04-02T22:37:06.169Z,101550.73
2023-04-02T22:39:38.321Z,101551.23
2023-04-02T22:42:10.170Z,101555.20
2023-04-02T22:44:42.485Z,101553.99
2023-04-02T22:47:14.300Z,101551.05
2023-04-02T22:49:49.433Z,101553.10
2023-04-02T22:52:21.194Z,101562.11
2023-04-02T22:54:52.933Z,101568.73
2023-04-02T22:57:24.707Z,101564.14
2023-04-02T22:59:56.431Z,101567.13
2023-04-02T23:02:28.232Z,101570.13
2023-04-02T23:05:01.170Z,101572.37
2023-04-02T23:07:33.147Z,101570.96
2023-04-02T23:10:05.948Z,101573.54
2023-04-02T23:12:38.254Z,101577.45
2023-04-02T23:15:12.322Z,101572.14
2023-04-02T23:17:44.211Z,101574.80
2023-04-02T23:20:16.392Z,101578.33
2023-04-02T23:22:48.195Z,101577.33
2023-04-02T23:25:20.279Z,101577.16
2023-04-02T23:27:52.016Z,101577.44
2023-04-02T23:30:23.917Z,101583.02
2023-04-02T23:32:55.784Z,101579.67
2023-04-02T23:35:28.101Z,101575.84
2023-04-02T23:37:59.885Z,101581.52
2023-04-02T23:40:31.827Z,101577.73
2023-04-02T23:43:03.665Z,101572.92
2023-04-02T23:45:36.309Z,101574.83
2023-04-02T23:48:07.279Z,101574.73
2023-04-02T23:50:39.073Z,101579.94
2023-04-02T23:53:10.907Z,101580.85
2023-04-02T23:55:43.021Z,101582.42
2023-04-02T23:58:15.031Z,101581.00
